sensor_id;sensor_type;location;lat;lon;timestamp;P1;durP1;ratioP1;P2;durP2;ratioP2
62990;SDS011;49084;48.204;16.202;2023-12-04T00:01:14;19.60;;;9.57;;
62990;SDS011;49084;48.204;16.202;2023-12-04T00:03:40;25.88;;;11.20;;
62990;SDS011;49084;48.204;16.202;2023-12-04T00:06:06;21.25;;;10.95;;
62990;SDS011;49084;48.204;16.202;2023-12-04T00:08:32;20.63;;;10.68;;
62990;SDS011;49084;48.204;16.202;2023-12-04T00:10:58;21.35;;;11.23;;
62990;SDS011;49084;48.204;16.202;2023-12-04T00:13:23;22.75;;;10.82;;
62990;SDS011;49084;48.204;16.202;2023-12-04T00:15:49;23.88;;;10.35;;
62990;SDS011;49084;48.204;16.202;2023-12-04T00:18:15;21.33;;;11.45;;
62990;SDS011;49084;48.204;16.202;2023-12-04T00:20:40;23.70;;;10.77;;
62990;SDS011;49084;48.204;16.202;2023-12-04T00:23:06;22.85;;;10.35;;
62990;SDS011;49084;48.204;16.202;2023-12-04T00:25:32;25.63;;;10.73;;
62990;SDS011;49084;48.204;16.202;2023-12-04T00:27:57;20.27;;;9.88;;
62990;SDS011;49084;48.204;16.202;2023-12-04T00:30:23;18.77;;;9.98;;
62990;SDS011;49084;48.204;16.202;2023-12-04T00:32:48;19.23;;;10.13;;
62990;SDS011;49084;48.204;16.202;2023-12-04T00:35:14;20.90;;;9.98;;
62990;SDS011;49084;48.204;16.202;2023-12-04T00:37:40;21.52;;;9.98;;
62990;SDS011;49084;48.204;16.202;2023-12-04T00:40:05;17.90;;;9.82;;
62990;SDS011;49084;48.204;16.202;2023-12-04T00:42:32;21.08;;;9.77;;
62990;SDS011;49084;48.204;16.202;2023-12-04T00:44:58;18.08;;;8.57;;
62990;SDS011;49084;48.204;16.202;2023-12-04T00:47:24;19.67;;;9.10;;
62990;SDS011;49084;48.204;16.202;2023-12-04T00:49:49;16.58;;;8.88;;
62990;SDS011;49084;48.204;16.202;2023-12-04T00:52:15;19.70;;;8.95;;
62990;SDS011;49084;48.204;16.202;2023-12-04T00:54:41;18.80;;;9.00;;
62990;SDS011;49084;48.204;16.202;2023-12-04T00:57:06;20.88;;;9.60;;
62990;SDS011;49084;48.204;16.202;2023-12-04T00:59:33;18.88;;;9.45;;
62990;SDS011;49084;48.204;16.202;2023-12-04T01:01:58;20.05;;;9.30;;
62990;SDS011;49084;48.204;16.202;2023-12-04T01:04:24;19.10;;;8.73;;
62990;SDS011;49084;48.204;16.202;2023-12-04T01:06:49;18.10;;;9.07;;
62990;SDS011;49084;48.204;16.202;2023-12-04T01:09:15;20.33;;;9.30;;
62990;SDS011;49084;48.204;16.202;2023-12-04T01:11:41;19.80;;;10.00;;
62990;SDS011;49084;48.204;16.202;2023-12-04T01:14:06;19.55;;;9.07;;
62990;SDS011;49084;48.204;16.202;2023-12-04T01:16:33;17.83;;;8.88;;
62990;SDS011;49084;48.204;16.202;2023-12-04T01:18:58;20.58;;;8.80;;
62990;SDS011;49084;48.204;16.202;2023-12-04T01:21:24;20.88;;;9.02;;
62990;SDS011;49084;48.204;16.202;2023-12-04T01:23:49;18.33;;;9.63;;
62990;SDS011;49084;48.204;16.202;2023-12-04T01:26:15;20.17;;;9.23;;
62990;SDS011;49084;48.204;16.202;2023-12-04T01:28:41;17.95;;;8.43;;
62990;SDS011;49084;48.204;16.202;2023-12-04T01:31:06;16.90;;;7.85;;
62990;SDS011;49084;48.204;16.202;2023-12-04T01:33:32;20.10;;;8.93;;
62990;SDS011;49084;48.204;16.202;2023-12-04T01:35:58;15.75;;;7.38;;
62990;SDS011;49084;48.204;16.202;2023-12-04T01:38:23;18.92;;;8.00;;
62990;SDS011;49084;48.204;16.202;2023-12-04T01:40:49;17.23;;;8.05;;
62990;SDS011;49084;48.204;16.202;2023-12-04T01:43:14;15.48;;;8.05;;
62990;SDS011;49084;48.204;16.202;2023-12-04T01:45:40;17.27;;;8.82;;
62990;SDS011;49084;48.204;16.202;2023-12-04T01:48:06;18.38;;;8.27;;
62990;SDS011;49084;48.204;16.202;2023-12-04T01:50:33;19.42;;;9.35;;
62990;SDS011;49084;48.204;16.202;2023-12-04T01:53:00;21.40;;;9.13;;
62990;SDS011;49084;48.204;16.202;2023-12-04T01:55:27;23.52;;;9.35;;
62990;SDS011;49084;48.204;16.202;2023-12-04T01:57:54;17.63;;;8.30;;
62990;SDS011;49084;48.204;16.202;2023-12-04T02:00:21;18.55;;;8.63;;
62990;SDS011;49084;48.204;16.202;2023-12-04T02:02:47;18.75;;;8.48;;
62990;SDS011;49084;48.204;16.202;2023-12-04T02:05:12;18.83;;;9.52;;
62990;SDS011;49084;48.204;16.202;2023-12-04T02:07:42;18.10;;;8.63;;
62990;SDS011;49084;48.204;16.202;2023-12-04T02:10:08;20.73;;;9.50;;
62990;SDS011;49084;48.204;16.202;2023-12-04T02:12:34;24.08;;;10.07;;
62990;SDS011;49084;48.204;16.202;2023-12-04T02:15:00;16.27;;;8.25;;
62990;SDS011;49084;48.204;16.202;2023-12-04T02:17:25;18.65;;;8.77;;
62990;SDS011;49084;48.204;16.202;2023-12-04T02:19:52;20.05;;;9.32;;
62990;SDS011;49084;48.204;16.202;2023-12-04T02:22:19;17.95;;;8.85;;
62990;SDS011;49084;48.204;16.202;2023-12-04T02:24:48;14.95;;;7.63;;
62990;SDS011;49084;48.204;16.202;2023-12-04T02:29:51;20.98;;;8.15;;
62990;SDS011;49084;48.204;16.202;2023-12-04T02:32:21;17.90;;;8.73;;
62990;SDS011;49084;48.204;16.202;2023-12-04T02:34:48;19.55;;;9.35;;
62990;SDS011;49084;48.204;16.202;2023-12-04T02:37:15;19.63;;;8.85;;
62990;SDS011;49084;48.204;16.202;2023-12-04T02:39:41;16.27;;;8.45;;
62990;SDS011;49084;48.204;16.202;2023-12-04T02:42:08;17.23;;;7.53;;
62990;SDS011;49084;48.204;16.202;2023-12-04T02:44:33;16.65;;;8.77;;
62990;SDS011;49084;48.204;16.202;2023-12-04T02:46:59;16.15;;;8.05;;
62990;SDS011;49084;48.204;16.202;2023-12-04T02:49:25;18.77;;;8.88;;
62990;SDS011;49084;48.204;16.202;2023-12-04T02:51:51;17.02;;;7.80;;
62990;SDS011;49084;48.204;16.202;2023-12-04T02:54:16;21.67;;;8.07;;
62990;SDS011;49084;48.204;16.202;2023-12-04T02:56:42;14.75;;;7.88;;
62990;SDS011;49084;48.204;16.202;2023-12-04T02:59:08;15.15;;;7.55;;
62990;SDS011;49084;48.204;16.202;2023-12-04T03:01:33;28.45;;;8.73;;
62990;SDS011;49084;48.204;16.202;2023-12-04T03:03:59;20.33;;;8.52;;
62990;SDS011;49084;48.204;16.202;2023-12-04T03:06:25;21.80;;;9.52;;
62990;SDS011;49084;48.204;16.202;2023-12-04T03:08:51;17.92;;;8.30;;
62990;SDS011;49084;48.204;16.202;2023-12-04T03:11:16;20.58;;;8.90;;
62990;SDS011;49084;48.204;16.202;2023-12-04T03:13:42;22.55;;;8.43;;
62990;SDS011;49084;48.204;16.202;2023-12-04T03:16:17;17.98;;;8.27;;
62990;SDS011;49084;48.204;16.202;2023-12-04T03:18:43;20.50;;;8.10;;
62990;SDS011;49084;48.204;16.202;2023-12-04T03:21:09;20.60;;;8.80;;
62990;SDS011;49084;48.204;16.202;2023-12-04T03:23:35;17.40;;;8.02;;
62990;SDS011;49084;48.204;16.202;2023-12-04T03:26:01;17.98;;;8.90;;
62990;SDS011;49084;48.204;16.202;2023-12-04T03:28:27;19.98;;;8.55;;
62990;SDS011;49084;48.204;16.202;2023-12-04T03:30:53;16.98;;;7.88;;
62990;SDS011;49084;48.204;16.202;2023-12-04T03:33:19;16.63;;;8.15;;
62990;SDS011;49084;48.204;16.202;2023-12-04T03:35:44;16.92;;;7.88;;
62990;SDS011;49084;48.204;16.202;2023-12-04T03:38:10;18.80;;;8.35;;
62990;SDS011;49084;48.204;16.202;2023-12-04T03:40:35;19.75;;;8.52;;
62990;SDS011;49084;48.204;16.202;2023-12-04T03:43:01;17.83;;;7.43;;
62990;SDS011;49084;48.204;16.202;2023-12-04T03:45:27;16.70;;;7.57;;
62990;SDS011;49084;48.204;16.202;2023-12-04T03:47:52;19.42;;;8.10;;
62990;SDS011;49084;48.204;16.202;2023-12-04T03:50:18;14.48;;;6.95;;
62990;SDS011;49084;48.204;16.202;2023-12-04T03:52:44;14.70;;;7.50;;
62990;SDS011;49084;48.204;16.202;2023-12-04T03:55:09;19.40;;;6.93;;
62990;SDS011;49084;48.204;16.202;2023-12-04T03:57:35;19.92;;;8.32;;
62990;SDS011;49084;48.204;16.202;2023-12-04T04:00:01;13.88;;;7.20;;
62990;SDS011;49084;48.204;16.202;2023-12-04T04:02:27;15.95;;;7.63;;
62990;SDS011;49084;48.204;16.202;2023-12-04T04:04:53;21.52;;;8.27;;
62990;SDS011;49084;48.204;16.202;2023-12-04T04:07:19;20.25;;;7.22;;
62990;SDS011;49084;48.204;16.202;2023-12-04T04:09:45;15.20;;;7.40;;
62990;SDS011;49084;48.204;16.202;2023-12-04T04:12:10;17.25;;;7.55;;
62990;SDS011;49084;48.204;16.202;2023-12-04T04:14:36;20.67;;;8.10;;
62990;SDS011;49084;48.204;16.202;2023-12-04T04:17:02;23.48;;;8.15;;
62990;SDS011;49084;48.204;16.202;2023-12-04T04:19:28;19.88;;;8.77;;
62990;SDS011;49084;48.204;16.202;2023-12-04T04:21:54;24.40;;;8.85;;
62990;SDS011;49084;48.204;16.202;2023-12-04T04:24:19;19.23;;;8.70;;
62990;SDS011;49084;48.204;16.202;2023-12-04T04:26:45;18.15;;;8.25;;
62990;SDS011;49084;48.204;16.202;2023-12-04T04:29:11;17.48;;;8.35;;
62990;SDS011;49084;48.204;16.202;2023-12-04T04:31:36;14.73;;;8.13;;
62990;SDS011;49084;48.204;16.202;2023-12-04T04:34:02;17.23;;;7.72;;
62990;SDS011;49084;48.204;16.202;2023-12-04T04:36:28;20.83;;;7.25;;
62990;SDS011;49084;48.204;16.202;2023-12-04T04:38:54;16.67;;;7.75;;
62990;SDS011;49084;48.204;16.202;2023-12-04T04:41:19;15.63;;;7.68;;
62990;SDS011;49084;48.204;16.202;2023-12-04T04:43:45;17.70;;;9.20;;
62990;SDS011;49084;48.204;16.202;2023-12-04T04:46:11;17.02;;;7.72;;
62990;SDS011;49084;48.204;16.202;2023-12-04T04:48:36;16.50;;;7.63;;
62990;SDS011;49084;48.204;16.202;2023-12-04T04:51:02;19.08;;;8.32;;
62990;SDS011;49084;48.204;16.202;2023-12-04T04:53:28;17.45;;;7.88;;
62990;SDS011;49084;48.204;16.202;2023-12-04T04:55:54;21.17;;;7.38;;
62990;SDS011;49084;48.204;16.202;2023-12-04T04:58:19;15.80;;;7.45;;
62990;SDS011;49084;48.204;16.202;2023-12-04T05:00:45;20.50;;;8.05;;
62990;SDS011;49084;48.204;16.202;2023-12-04T05:03:12;15.35;;;7.38;;
62990;SDS011;49084;48.204;16.202;2023-12-04T05:05:38;18.00;;;6.97;;
62990;SDS011;49084;48.204;16.202;2023-12-04T05:08:03;15.27;;;7.10;;
62990;SDS011;49084;48.204;16.202;2023-12-04T05:10:29;14.93;;;6.50;;
62990;SDS011;49084;48.204;16.202;2023-12-04T05:12:55;17.42;;;6.93;;
62990;SDS011;49084;48.204;16.202;2023-12-04T05:15:20;21.52;;;6.97;;
62990;SDS011;49084;48.204;16.202;2023-12-04T05:17:46;16.80;;;6.88;;
62990;SDS011;49084;48.204;16.202;2023-12-04T05:20:12;14.90;;;7.35;;
62990;SDS011;49084;48.204;16.202;2023-12-04T05:22:38;15.68;;;7.10;;
62990;SDS011;49084;48.204;16.202;2023-12-04T05:25:03;14.63;;;7.40;;
62990;SDS011;49084;48.204;16.202;2023-12-04T05:27:29;15.57;;;7.47;;
62990;SDS011;49084;48.204;16.202;2023-12-04T05:29:55;18.35;;;8.38;;
62990;SDS011;49084;48.204;16.202;2023-12-04T05:32:21;19.00;;;7.97;;
62990;SDS011;49084;48.204;16.202;2023-12-04T05:34:46;14.02;;;6.93;;
62990;SDS011;49084;48.204;16.202;2023-12-04T05:37:12;15.30;;;6.78;;
62990;SDS011;49084;48.204;16.202;2023-12-04T05:39:37;16.58;;;6.95;;
62990;SDS011;49084;48.204;16.202;2023-12-04T05:42:03;17.30;;;7.75;;
62990;SDS011;49084;48.204;16.202;2023-12-04T05:44:29;12.75;;;6.38;;
62990;SDS011;49084;48.204;16.202;2023-12-04T05:46:55;15.40;;;6.80;;
62990;SDS011;49084;48.204;16.202;2023-12-04T05:49:21;16.35;;;7.05;;
62990;SDS011;49084;48.204;16.202;2023-12-04T05:51:47;13.82;;;7.05;;
62990;SDS011;49084;48.204;16.202;2023-12-04T05:54:12;15.02;;;7.32;;
62990;SDS011;49084;48.204;16.202;2023-12-04T05:56:38;20.83;;;8.10;;
62990;SDS011;49084;48.204;16.202;2023-12-04T05:59:03;18.75;;;8.20;;
62990;SDS011;49084;48.204;16.202;2023-12-04T06:01:29;16.67;;;6.97;;
62990;SDS011;49084;48.204;16.202;2023-12-04T06:03:55;16.92;;;7.55;;
62990;SDS011;49084;48.204;16.202;2023-12-04T06:06:20;18.88;;;7.45;;
62990;SDS011;49084;48.204;16.202;2023-12-04T06:08:46;19.27;;;7.80;;
62990;SDS011;49084;48.204;16.202;2023-12-04T06:11:11;18.58;;;8.18;;
62990;SDS011;49084;48.204;16.202;2023-12-04T06:13:37;21.23;;;7.78;;
62990;SDS011;49084;48.204;16.202;2023-12-04T06:16:03;20.42;;;8.88;;
62990;SDS011;49084;48.204;16.202;2023-12-04T06:18:29;16.30;;;7.60;;
62990;SDS011;49084;48.204;16.202;2023-12-04T06:20:54;17.77;;;7.80;;
62990;SDS011;49084;48.204;16.202;2023-12-04T06:23:20;15.43;;;7.22;;
62990;SDS011;49084;48.204;16.202;2023-12-04T06:25:46;17.52;;;6.75;;
62990;SDS011;49084;48.204;16.202;2023-12-04T06:28:11;18.85;;;7.93;;
62990;SDS011;49084;48.204;16.202;2023-12-04T06:30:37;14.65;;;6.70;;
62990;SDS011;49084;48.204;16.202;2023-12-04T06:33:04;15.23;;;7.25;;
62990;SDS011;49084;48.204;16.202;2023-12-04T06:35:29;13.77;;;7.43;;
62990;SDS011;49084;48.204;16.202;2023-12-04T06:37:55;17.40;;;7.55;;
62990;SDS011;49084;48.204;16.202;2023-12-04T06:40:32;15.30;;;7.88;;
62990;SDS011;49084;48.204;16.202;2023-12-04T06:42:59;18.08;;;8.35;;
62990;SDS011;49084;48.204;16.202;2023-12-04T06:45:25;19.52;;;8.05;;
62990;SDS011;49084;48.204;16.202;2023-12-04T06:47:52;27.65;;;7.40;;
62990;SDS011;49084;48.204;16.202;2023-12-04T06:50:19;15.95;;;8.02;;
62990;SDS011;49084;48.204;16.202;2023-12-04T06:52:45;15.50;;;8.25;;
62990;SDS011;49084;48.204;16.202;2023-12-04T06:55:11;14.70;;;7.90;;
62990;SDS011;49084;48.204;16.202;2023-12-04T06:57:37;14.07;;;7.32;;
62990;SDS011;49084;48.204;16.202;2023-12-04T07:00:03;22.70;;;10.40;;
62990;SDS011;49084;48.204;16.202;2023-12-04T07:02:31;29.15;;;11.10;;
62990;SDS011;49084;48.204;16.202;2023-12-04T07:04:57;22.30;;;10.50;;
62990;SDS011;49084;48.204;16.202;2023-12-04T07:07:23;25.02;;;10.60;;
62990;SDS011;49084;48.204;16.202;2023-12-04T08:33:30;24.42;;;14.20;;
62990;SDS011;49084;48.204;16.202;2023-12-04T08:35:56;20.77;;;13.07;;
62990;SDS011;49084;48.204;16.202;2023-12-04T08:38:21;21.98;;;12.95;;
62990;SDS011;49084;48.204;16.202;2023-12-04T08:40:47;18.13;;;11.48;;
62990;SDS011;49084;48.204;16.202;2023-12-04T08:43:13;20.77;;;11.90;;
62990;SDS011;49084;48.204;16.202;2023-12-04T08:45:39;20.90;;;12.38;;
62990;SDS011;49084;48.204;16.202;2023-12-04T08:48:04;20.00;;;12.18;;
62990;SDS011;49084;48.204;16.202;2023-12-04T08:50:30;19.05;;;12.13;;
62990;SDS011;49084;48.204;16.202;2023-12-04T08:52:56;20.10;;;11.85;;
62990;SDS011;49084;48.204;16.202;2023-12-04T08:55:22;20.13;;;12.70;;
62990;SDS011;49084;48.204;16.202;2023-12-04T08:57:48;19.75;;;11.85;;
62990;SDS011;49084;48.204;16.202;2023-12-04T09:00:13;16.00;;;9.68;;
62990;SDS011;49084;48.204;16.202;2023-12-04T09:02:39;22.20;;;12.45;;
62990;SDS011;49084;48.204;16.202;2023-12-04T09:05:05;14.85;;;9.65;;
62990;SDS011;49084;48.204;16.202;2023-12-04T09:07:31;19.20;;;10.63;;
62990;SDS011;49084;48.204;16.202;2023-12-04T09:09:56;16.38;;;9.77;;
62990;SDS011;49084;48.204;16.202;2023-12-04T09:12:22;16.65;;;10.38;;
62990;SDS011;49084;48.204;16.202;2023-12-04T09:14:48;16.77;;;10.40;;
62990;SDS011;49084;48.204;16.202;2023-12-04T09:17:13;15.55;;;9.38;;
62990;SDS011;49084;48.204;16.202;2023-12-04T09:19:41;14.40;;;8.52;;
62990;SDS011;49084;48.204;16.202;2023-12-04T09:22:07;14.50;;;8.73;;
62990;SDS011;49084;48.204;16.202;2023-12-04T09:24:33;15.35;;;8.75;;
62990;SDS011;49084;48.204;16.202;2023-12-04T09:26:59;16.40;;;9.93;;
62990;SDS011;49084;48.204;16.202;2023-12-04T09:29:25;18.30;;;10.88;;
62990;SDS011;49084;48.204;16.202;2023-12-04T09:31:51;20.52;;;11.68;;
62990;SDS011;49084;48.204;16.202;2023-12-04T09:34:17;18.30;;;11.38;;
62990;SDS011;49084;48.204;16.202;2023-12-04T09:36:43;17.52;;;11.52;;
62990;SDS011;49084;48.204;16.202;2023-12-04T09:39:08;19.42;;;10.75;;
62990;SDS011;49084;48.204;16.202;2023-12-04T09:41:35;21.48;;;11.23;;
62990;SDS011;49084;48.204;16.202;2023-12-04T09:44:02;26.77;;;12.45;;
62990;SDS011;49084;48.204;16.202;2023-12-04T09:46:28;23.60;;;12.18;;
62990;SDS011;49084;48.204;16.202;2023-12-04T09:48:54;21.23;;;11.63;;
62990;SDS011;49084;48.204;16.202;2023-12-04T09:51:21;19.00;;;10.82;;
62990;SDS011;49084;48.204;16.202;2023-12-04T09:53:48;20.90;;;11.07;;
62990;SDS011;49084;48.204;16.202;2023-12-04T09:56:14;20.65;;;11.82;;
62990;SDS011;49084;48.204;16.202;2023-12-04T09:58:42;19.52;;;11.40;;
62990;SDS011;49084;48.204;16.202;2023-12-04T10:01:09;21.63;;;11.80;;
62990;SDS011;49084;48.204;16.202;2023-12-04T10:03:36;18.60;;;10.90;;
62990;SDS011;49084;48.204;16.202;2023-12-04T10:06:03;22.20;;;11.95;;
62990;SDS011;49084;48.204;16.202;2023-12-04T10:08:30;23.75;;;13.18;;
62990;SDS011;49084;48.204;16.202;2023-12-04T10:10:56;21.17;;;12.10;;
62990;SDS011;49084;48.204;16.202;2023-12-04T10:13:23;25.33;;;12.18;;
62990;SDS011;49084;48.204;16.202;2023-12-04T10:15:50;25.02;;;13.02;;
62990;SDS011;49084;48.204;16.202;2023-12-04T10:18:29;27.23;;;13.85;;
62990;SDS011;49084;48.204;16.202;2023-12-04T10:20:56;20.58;;;11.80;;
62990;SDS011;49084;48.204;16.202;2023-12-04T10:23:23;22.55;;;11.82;;
62990;SDS011;49084;48.204;16.202;2023-12-04T10:26:02;22.58;;;13.63;;
62990;SDS011;49084;48.204;16.202;2023-12-04T10:28:27;24.27;;;13.10;;
62990;SDS011;49084;48.204;16.202;2023-12-04T10:30:55;27.20;;;15.68;;
62990;SDS011;49084;48.204;16.202;2023-12-04T10:33:20;20.52;;;12.00;;
62990;SDS011;49084;48.204;16.202;2023-12-04T10:35:50;23.52;;;11.95;;
62990;SDS011;49084;48.204;16.202;2023-12-04T10:38:16;21.33;;;12.70;;
62990;SDS011;49084;48.204;16.202;2023-12-04T10:40:44;23.40;;;12.13;;
62990;SDS011;49084;48.204;16.202;2023-12-04T10:43:19;20.27;;;11.52;;
62990;SDS011;49084;48.204;16.202;2023-12-04T10:45:47;18.55;;;11.77;;
62990;SDS011;49084;48.204;16.202;2023-12-04T10:48:15;16.33;;;10.80;;
62990;SDS011;49084;48.204;16.202;2023-12-04T10:50:44;20.10;;;11.35;;
62990;SDS011;49084;48.204;16.202;2023-12-04T10:53:14;18.85;;;10.80;;
62990;SDS011;49084;48.204;16.202;2023-12-04T10:55:41;21.85;;;10.82;;
62990;SDS011;49084;48.204;16.202;2023-12-04T10:58:09;19.85;;;11.45;;
62990;SDS011;49084;48.204;16.202;2023-12-04T11:00:48;18.50;;;11.18;;
62990;SDS011;49084;48.204;16.202;2023-12-04T11:03:31;21.30;;;10.77;;
62990;SDS011;49084;48.204;16.202;2023-12-04T11:06:02;20.67;;;11.32;;
62990;SDS011;49084;48.204;16.202;2023-12-04T11:08:32;15.68;;;10.20;;
62990;SDS011;49084;48.204;16.202;2023-12-04T11:11:04;18.27;;;10.43;;
62990;SDS011;49084;48.204;16.202;2023-12-04T11:13:42;16.15;;;9.75;;
62990;SDS011;49084;48.204;16.202;2023-12-04T11:19:00;17.40;;;9.68;;
62990;SDS011;49084;48.204;16.202;2023-12-04T11:21:42;14.52;;;9.30;;
62990;SDS011;49084;48.204;16.202;2023-12-04T11:24:10;13.50;;;9.15;;
62990;SDS011;49084;48.204;16.202;2023-12-04T11:26:36;16.17;;;10.15;;
62990;SDS011;49084;48.204;16.202;2023-12-04T11:29:03;15.80;;;9.02;;
62990;SDS011;49084;48.204;16.202;2023-12-04T11:31:30;17.20;;;10.18;;
62990;SDS011;49084;48.204;16.202;2023-12-04T11:34:01;18.77;;;10.35;;
62990;SDS011;49084;48.204;16.202;2023-12-04T11:36:27;20.02;;;10.27;;
62990;SDS011;49084;48.204;16.202;2023-12-04T11:38:53;18.15;;;10.48;;
62990;SDS011;49084;48.204;16.202;2023-12-04T11:41:19;14.48;;;9.35;;
62990;SDS011;49084;48.204;16.202;2023-12-04T11:43:46;16.83;;;9.80;;
62990;SDS011;49084;48.204;16.202;2023-12-04T11:46:13;20.63;;;13.10;;
62990;SDS011;49084;48.204;16.202;2023-12-04T11:48:47;28.50;;;16.05;;
62990;SDS011;49084;48.204;16.202;2023-12-04T11:51:15;19.80;;;11.45;;
62990;SDS011;49084;48.204;16.202;2023-12-04T11:54:01;76.50;;;38.38;;
62990;SDS011;49084;48.204;16.202;2023-12-04T11:56:29;69.70;;;31.75;;
62990;SDS011;49084;48.204;16.202;2023-12-04T11:59:02;23.25;;;15.93;;
62990;SDS011;49084;48.204;16.202;2023-12-04T12:01:28;17.25;;;9.57;;
62990;SDS011;49084;48.204;16.202;2023-12-04T12:03:58;13.50;;;9.35;;
62990;SDS011;49084;48.204;16.202;2023-12-04T12:06:24;15.57;;;9.95;;
62990;SDS011;49084;48.204;16.202;2023-12-04T12:08:50;14.70;;;8.82;;
62990;SDS011;49084;48.204;16.202;2023-12-04T12:11:16;17.05;;;9.43;;
62990;SDS011;49084;48.204;16.202;2023-12-04T12:13:42;17.20;;;9.60;;
62990;SDS011;49084;48.204;16.202;2023-12-04T12:16:09;16.88;;;9.57;;
62990;SDS011;49084;48.204;16.202;2023-12-04T12:18:36;23.13;;;10.35;;
62990;SDS011;49084;48.204;16.202;2023-12-04T12:21:02;17.85;;;9.18;;
62990;SDS011;49084;48.204;16.202;2023-12-04T12:23:28;20.42;;;10.05;;
62990;SDS011;49084;48.204;16.202;2023-12-04T12:25:54;15.70;;;9.90;;
62990;SDS011;49084;48.204;16.202;2023-12-04T12:28:20;20.95;;;11.38;;
62990;SDS011;49084;48.204;16.202;2023-12-04T12:30:45;20.08;;;14.30;;
62990;SDS011;49084;48.204;16.202;2023-12-04T12:33:14;21.42;;;14.75;;
62990;SDS011;49084;48.204;16.202;2023-12-04T12:35:41;24.75;;;14.93;;
62990;SDS011;49084;48.204;16.202;2023-12-04T12:38:07;20.73;;;15.32;;
62990;SDS011;49084;48.204;16.202;2023-12-04T12:40:33;16.55;;;9.70;;
62990;SDS011;49084;48.204;16.202;2023-12-04T12:43:08;16.13;;;9.30;;
62990;SDS011;49084;48.204;16.202;2023-12-04T12:45:43;14.75;;;8.98;;
62990;SDS011;49084;48.204;16.202;2023-12-04T12:48:13;17.08;;;8.85;;
62990;SDS011;49084;48.204;16.202;2023-12-04T12:50:40;17.95;;;9.30;;
62990;SDS011;49084;48.204;16.202;2023-12-04T12:53:12;13.93;;;8.40;;
62990;SDS011;49084;48.204;16.202;2023-12-04T12:55:41;15.98;;;8.82;;
62990;SDS011;49084;48.204;16.202;2023-12-04T12:58:11;16.52;;;9.65;;
62990;SDS011;49084;48.204;16.202;2023-12-04T13:00:40;14.40;;;8.98;;
62990;SDS011;49084;48.204;16.202;2023-12-04T13:03:18;14.57;;;7.70;;
62990;SDS011;49084;48.204;16.202;2023-12-04T13:05:44;14.80;;;9.40;;
62990;SDS011;49084;48.204;16.202;2023-12-04T13:08:10;21.45;;;9.10;;
62990;SDS011;49084;48.204;16.202;2023-12-04T13:10:37;16.48;;;8.30;;
62990;SDS011;49084;48.204;16.202;2023-12-04T13:13:03;14.43;;;8.60;;
62990;SDS011;49084;48.204;16.202;2023-12-04T13:15:29;14.35;;;8.25;;
62990;SDS011;49084;48.204;16.202;2023-12-04T13:17:55;12.32;;;8.40;;
62990;SDS011;49084;48.204;16.202;2023-12-04T13:20:21;14.25;;;8.27;;
62990;SDS011;49084;48.204;16.202;2023-12-04T13:22:48;15.63;;;8.63;;
62990;SDS011;49084;48.204;16.202;2023-12-04T13:25:14;18.00;;;8.88;;
62990;SDS011;49084;48.204;16.202;2023-12-04T13:27:40;15.65;;;9.00;;
62990;SDS011;49084;48.204;16.202;2023-12-04T13:30:06;14.50;;;8.13;;
62990;SDS011;49084;48.204;16.202;2023-12-04T13:32:36;15.98;;;8.63;;
62990;SDS011;49084;48.204;16.202;2023-12-04T13:35:02;14.38;;;7.30;;
62990;SDS011;49084;48.204;16.202;2023-12-04T13:37:36;16.67;;;7.65;;
62990;SDS011;49084;48.204;16.202;2023-12-04T13:40:04;23.42;;;8.30;;
62990;SDS011;49084;48.204;16.202;2023-12-04T13:42:37;11.48;;;7.47;;
62990;SDS011;49084;48.204;16.202;2023-12-04T13:45:21;13.05;;;6.72;;
62990;SDS011;49084;48.204;16.202;2023-12-04T13:47:47;8.75;;;5.78;;
62990;SDS011;49084;48.204;16.202;2023-12-04T13:50:14;11.48;;;6.47;;
62990;SDS011;49084;48.204;16.202;2023-12-04T13:52:40;13.23;;;6.75;;
62990;SDS011;49084;48.204;16.202;2023-12-04T13:55:07;11.63;;;6.90;;
62990;SDS011;49084;48.204;16.202;2023-12-04T13:57:45;13.25;;;6.57;;
62990;SDS011;49084;48.204;16.202;2023-12-04T14:00:20;13.27;;;6.25;;
62990;SDS011;49084;48.204;16.202;2023-12-04T14:02:45;12.73;;;7.18;;
62990;SDS011;49084;48.204;16.202;2023-12-04T14:05:11;14.90;;;7.93;;
62990;SDS011;49084;48.204;16.202;2023-12-04T14:07:40;14.43;;;7.15;;
62990;SDS011;49084;48.204;16.202;2023-12-04T14:10:08;13.77;;;7.53;;
62990;SDS011;49084;48.204;16.202;2023-12-04T14:12:34;15.50;;;7.55;;
62990;SDS011;49084;48.204;16.202;2023-12-04T14:15:01;11.63;;;6.85;;
62990;SDS011;49084;48.204;16.202;2023-12-04T14:17:28;14.75;;;8.50;;
62990;SDS011;49084;48.204;16.202;2023-12-04T14:19:54;12.30;;;7.32;;
62990;SDS011;49084;48.204;16.202;2023-12-04T14:22:20;13.00;;;7.93;;
62990;SDS011;49084;48.204;16.202;2023-12-04T14:24:45;16.27;;;8.45;;
62990;SDS011;49084;48.204;16.202;2023-12-04T14:27:11;13.73;;;8.52;;
62990;SDS011;49084;48.204;16.202;2023-12-04T14:29:37;14.20;;;8.07;;
62990;SDS011;49084;48.204;16.202;2023-12-04T14:32:05;18.00;;;7.70;;
62990;SDS011;49084;48.204;16.202;2023-12-04T14:34:31;14.07;;;7.65;;
62990;SDS011;49084;48.204;16.202;2023-12-04T14:36:57;14.35;;;7.70;;
62990;SDS011;49084;48.204;16.202;2023-12-04T14:39:23;17.15;;;8.52;;
62990;SDS011;49084;48.204;16.202;2023-12-04T14:41:49;13.23;;;7.28;;
62990;SDS011;49084;48.204;16.202;2023-12-04T14:44:16;11.75;;;6.85;;
62990;SDS011;49084;48.204;16.202;2023-12-04T14:46:41;15.10;;;6.80;;
62990;SDS011;49084;48.204;16.202;2023-12-04T14:49:07;10.73;;;7.00;;
62990;SDS011;49084;48.204;16.202;2023-12-04T14:51:33;12.00;;;6.70;;
62990;SDS011;49084;48.204;16.202;2023-12-04T14:53:58;13.43;;;7.30;;
62990;SDS011;49084;48.204;16.202;2023-12-04T14:56:46;12.45;;;7.15;;
62990;SDS011;49084;48.204;16.202;2023-12-04T14:59:30;10.82;;;7.00;;
62990;SDS011;49084;48.204;16.202;2023-12-04T15:02:25;11.57;;;7.32;;
62990;SDS011;49084;48.204;16.202;2023-12-04T15:04:53;16.02;;;7.80;;
62990;SDS011;49084;48.204;16.202;2023-12-04T15:07:19;14.30;;;8.05;;
62990;SDS011;49084;48.204;16.202;2023-12-04T15:09:44;12.80;;;7.03;;
62990;SDS011;49084;48.204;16.202;2023-12-04T15:12:28;16.95;;;9.63;;
62990;SDS011;49084;48.204;16.202;2023-12-04T15:15:13;17.92;;;10.40;;
62990;SDS011;49084;48.204;16.202;2023-12-04T15:17:50;15.52;;;9.75;;
62990;SDS011;49084;48.204;16.202;2023-12-04T15:20:20;12.27;;;7.28;;
62990;SDS011;49084;48.204;16.202;2023-12-04T15:22:52;14.77;;;9.15;;
62990;SDS011;49084;48.204;16.202;2023-12-04T15:25:18;18.52;;;8.95;;
62990;SDS011;49084;48.204;16.202;2023-12-04T15:27:44;16.08;;;9.18;;
62990;SDS011;49084;48.204;16.202;2023-12-04T15:30:11;13.68;;;7.35;;
62990;SDS011;49084;48.204;16.202;2023-12-04T15:32:38;12.98;;;7.80;;
62990;SDS011;49084;48.204;16.202;2023-12-04T15:35:05;17.73;;;9.77;;
62990;SDS011;49084;48.204;16.202;2023-12-04T15:37:31;14.60;;;9.35;;
62990;SDS011;49084;48.204;16.202;2023-12-04T15:39:56;14.57;;;7.45;;
62990;SDS011;49084;48.204;16.202;2023-12-04T15:42:23;15.23;;;7.65;;
62990;SDS011;49084;48.204;16.202;2023-12-04T15:44:50;13.15;;;7.82;;
62990;SDS011;49084;48.204;16.202;2023-12-04T15:47:16;17.30;;;7.85;;